createdAt,value
2022-12-01T15:27:36.909Z,48.71
2022-12-01T15:30:17.301Z,48.81
2022-12-01T15:32:52.230Z,48.98
2022-12-01T15:35:33.715Z,49.18
2022-12-01T15:38:08.191Z,49.65
2022-12-01T15:41:13.253Z,49.88
2022-12-01T15:43:38.283Z,50.03
2022-12-01T15:46:20.302Z,50.03
2022-12-01T15:49:07.855Z,50.30
2022-12-01T15:51:42.339Z,50.54
2022-12-01T15:54:24.588Z,50.83
2022-12-01T15:57:00.570Z,51.27
2022-12-01T15:59:38.032Z,51.58
2022-12-01T16:02:28.896Z,51.33
2022-12-01T16:05:16.929Z,51.94
2022-12-01T16:08:12.569Z,52.19
2022-12-01T16:10:44.704Z,52.42
2022-12-01T16:13:56.916Z,52.80
2022-12-01T16:16:39.535Z,52.72
2022-12-01T16:19:34.605Z,53.02
2022-12-01T16:22:18.191Z,53.43
2022-12-01T16:24:56.049Z,53.64
2022-12-01T16:27:34.652Z,53.40
2022-12-01T16:30:21.980Z,53.63
2022-12-01T16:33:02.643Z,53.88
2022-12-01T16:35:36.653Z,54.11
2022-12-01T16:38:16.333Z,54.23
2022-12-01T16:40:52.378Z,54.67
2022-12-01T16:43:27.855Z,54.48
2022-12-01T16:46:08.824Z,54.37
2022-12-01T16:48:42.874Z,54.40
2022-12-01T16:51:29.906Z,54.23
2022-12-01T16:54:20.285Z,54.77
2022-12-01T16:56:55.068Z,54.60
2022-12-01T16:59:28.643Z,54.78
2022-12-01T17:02:02.718Z,54.89
2022-12-01T17:04:36.905Z,55.44
2022-12-01T17:07:11.366Z,55.69
2022-12-01T17:09:45.089Z,56.22
2022-12-01T17:12:19.847Z,56.42
2022-12-01T17:14:54.142Z,56.44
2022-12-01T17:17:28.222Z,56.39
2022-12-01T17:20:01.922Z,56.43
2022-12-01T17:22:33.249Z,56.39
2022-12-01T17:25:07.200Z,56.56
2022-12-01T17:27:42.281Z,56.81
2022-12-01T17:30:20.312Z,57.02
2022-12-01T17:32:53.989Z,56.83
2022-12-01T17:35:28.508Z,56.60
2022-12-01T17:38:03.852Z,56.84
2022-12-01T17:40:38.099Z,56.84
2022-12-01T17:43:13.264Z,56.78
2022-12-01T17:45:47.739Z,57.04
2022-12-01T17:48:21.583Z,57.37
2022-12-01T17:50:55.216Z,57.10
2022-12-01T17:53:30.167Z,57.33
2022-12-01T17:56:04.328Z,57.44
2022-12-01T17:58:39.297Z,57.36
2022-12-01T18:01:18.174Z,57.48
2022-12-01T18:03:52.575Z,57.60
2022-12-01T18:06:27.244Z,57.41
2022-12-01T18:09:01.826Z,57.67
2022-12-01T18:11:36.060Z,57.75
2022-12-01T18:14:10.666Z,57.52
2022-12-01T18:16:47.217Z,57.74
2022-12-01T18:19:20.724Z,57.80
2022-12-01T18:21:54.605Z,57.92
2022-12-01T18:24:28.148Z,57.97
2022-12-01T18:27:02.134Z,58.24
2022-12-01T18:29:36.513Z,58.16
2022-12-01T18:32:10.374Z,58.26
2022-12-01T18:34:41.976Z,58.15
2022-12-01T18:37:15.389Z,58.23
2022-12-01T18:39:53.218Z,58.62
2022-12-01T18:42:26.456Z,58.57
2022-12-01T18:45:00.594Z,58.37
2022-12-01T18:47:32.780Z,58.44
2022-12-01T18:50:06.399Z,58.69
2022-12-01T18:52:41.614Z,58.86
2022-12-01T18:55:16.039Z,58.73
2022-12-01T18:57:50.130Z,58.71
2022-12-01T19:00:26.709Z,59.02
2022-12-01T19:03:00.265Z,58.88
2022-12-01T19:05:34.600Z,59.04
2022-12-01T19:08:08.381Z,58.86
2022-12-01T19:10:42.106Z,59.19
2022-12-01T19:13:15.625Z,59.43
2022-12-01T19:15:49.177Z,59.59
2022-12-01T19:18:22.544Z,60.13
2022-12-01T19:20:56.663Z,59.95
2022-12-01T19:23:30.979Z,60.04
2022-12-01T19:26:07.564Z,60.15
2022-12-01T19:28:42.295Z,60.55
2022-12-01T19:31:17.020Z,60.61
2022-12-01T19:33:50.393Z,60.82
2022-12-01T19:36:26.447Z,60.84
2022-12-01T19:39:04.394Z,60.90
2022-12-01T19:41:40.142Z,60.72
2022-12-01T19:44:14.377Z,60.80
2022-12-01T19:46:47.941Z,61.03
2022-12-01T19:49:21.700Z,61.19
2022-12-01T19:51:55.656Z,61.03
2022-12-01T19:54:28.866Z,60.89
2022-12-01T19:57:06.610Z,60.82
2022-12-01T19:59:41.063Z,60.83
2022-12-01T20:02:15.753Z,60.84
2022-12-01T20:04:49.944Z,60.80
2022-12-01T20:07:23.411Z,60.76
2022-12-01T20:09:58.503Z,60.98
2022-12-01T20:12:32.885Z,60.78
2022-12-01T20:15:08.930Z,60.71
2022-12-01T20:17:42.766Z,60.61
2022-12-01T20:20:18.011Z,60.73
2022-12-01T20:22:51.602Z,60.60
2022-12-01T20:25:25.800Z,60.69
2022-12-01T20:28:00.084Z,60.47
2022-12-01T20:30:31.432Z,60.45
2022-12-01T20:33:05.188Z,60.60
2022-12-01T20:35:39.455Z,60.39
2022-12-01T20:38:12.726Z,60.59
2022-12-01T20:40:47.793Z,60.47
2022-12-01T20:43:22.741Z,60.60
2022-12-01T20:45:56.259Z,60.53
2022-12-01T20:48:30.587Z,61.17
2022-12-01T20:51:06.300Z,60.99
2022-12-01T20:53:40.325Z,61.37
2022-12-01T20:56:16.147Z,61.45
2022-12-01T20:58:50.792Z,61.38
2022-12-01T21:01:24.792Z,61.75
2022-12-01T21:03:57.692Z,61.92
2022-12-01T21:06:31.745Z,61.77
2022-12-01T21:09:07.594Z,61.92
2022-12-01T21:12:13.533Z,62.05
2022-12-01T21:14:50.916Z,61.88
2022-12-01T21:17:33.715Z,62.07
2022-12-01T21:20:22.006Z,61.67
2022-12-01T21:22:56.564Z,61.66
2022-12-01T21:25:31.233Z,61.57
2022-12-01T21:28:20.197Z,61.41
2022-12-01T21:30:59.680Z,61.42
2022-12-01T21:33:39.320Z,61.38
2022-12-01T21:36:19.931Z,61.41
2022-12-01T21:39:07.614Z,60.64
2022-12-01T21:41:41.533Z,59.85
2022-12-01T21:44:19.203Z,59.16
2022-12-01T21:46:57.301Z,58.46
2022-12-01T21:49:40.604Z,58.49
2022-12-01T21:52:21.162Z,58.38
2022-12-01T21:54:55.852Z,57.71
2022-12-01T21:57:43.397Z,57.63
2022-12-01T22:00:32.219Z,57.85
2022-12-01T22:03:27.336Z,57.48
2022-12-01T22:06:28.715Z,57.16
2022-12-01T22:09:00.842Z,57.29
2022-12-01T22:11:37.252Z,57.05
2022-12-01T22:14:18.756Z,56.19
2022-12-01T22:16:57.928Z,56.60
2022-12-01T22:19:34.733Z,56.68
2022-12-01T22:22:24.729Z,56.11
2022-12-01T22:25:00.557Z,56.01
2022-12-01T22:27:37.575Z,56.00
2022-12-01T22:30:23.850Z,56.13
2022-12-01T22:33:03.839Z,55.42
2022-12-01T22:35:44.198Z,55.66
2022-12-01T22:38:43.284Z,55.69
2022-12-01T22:41:21.157Z,55.58
2022-12-01T22:43:56.791Z,55.64
2022-12-01T22:46:36.246Z,55.58
2022-12-01T22:49:20.041Z,55.64
2022-12-01T22:51:55.341Z,55.58
2022-12-01T22:54:45.268Z,55.62
2022-12-01T22:57:50.506Z,55.54
2022-12-01T23:00:29.320Z,55.07
2022-12-01T23:03:03.775Z,54.84
2022-12-01T23:05:38.286Z,55.29
2022-12-01T23:08:18.511Z,54.60
2022-12-01T23:10:52.795Z,54.46
2022-12-01T23:13:28.002Z,54.47
2022-12-01T23:16:02.375Z,54.55
2022-12-01T23:18:36.634Z,54.69
2022-12-01T23:21:11.318Z,54.92
2022-12-01T23:23:45.461Z,54.57
2022-12-01T23:26:19.801Z,55.02
2022-12-01T23:28:54.095Z,54.76
2022-12-01T23:31:29.165Z,55.12
2022-12-01T23:34:02.923Z,54.78
2022-12-01T23:36:37.127Z,55.43
2022-12-01T23:39:21.265Z,55.42
2022-12-01T23:41:55.890Z,55.47
2022-12-01T23:44:38.384Z,55.27
2022-12-01T23:47:18.258Z,55.59
2022-12-01T23:49:55.767Z,55.59
2022-12-01T23:52:39.582Z,56.03
2022-12-01T23:55:21.897Z,55.93
2022-12-01T23:57:56.269Z,56.48
